sensor_id;sensor_type;location;lat;lon;timestamp;P1;P2;P0
82667;PMS5003;72691;51.374;-0.176;2024-03-22T00:00:50;40;35;
82667;PMS5003;72691;51.374;-0.176;2024-03-22T00:03:15;39;36;
82667;PMS5003;72691;51.374;-0.176;2024-03-22T00:05:41;40;37;
82667;PMS5003;72691;51.374;-0.176;2024-03-22T00:08:07;44;40;
82667;PMS5003;72691;51.374;-0.176;2024-03-22T00:10:32;40;39;
82667;PMS5003;72691;51.374;-0.176;2024-03-22T00:12:57;40;34;
82667;PMS5003;72691;51.374;-0.176;2024-03-22T00:15:23;36;33;
82667;PMS5003;72691;51.374;-0.176;2024-03-22T00:17:48;34;33;
82667;PMS5003;72691;51.374;-0.176;2024-03-22T00:20:13;38;33;
82667;PMS5003;72691;51.374;-0.176;2024-03-22T00:22:39;33;32;
82667;PMS5003;72691;51.374;-0.176;2024-03-22T00:25:04;34;33;
82667;PMS5003;72691;51.374;-0.176;2024-03-22T00:27:29;41;41;
82667;PMS5003;72691;51.374;-0.176;2024-03-22T00:29:55;35;34;
82667;PMS5003;72691;51.374;-0.176;2024-03-22T00:32:20;35;33;
82667;PMS5003;72691;51.374;-0.176;2024-03-22T00:34:45;39;38;
82667;PMS5003;72691;51.374;-0.176;2024-03-22T00:37:11;41;34;
82667;PMS5003;72691;51.374;-0.176;2024-03-22T00:39:36;36;33;
82667;PMS5003;72691;51.374;-0.176;2024-03-22T00:42:02;35;33;
82667;PMS5003;72691;51.374;-0.176;2024-03-22T00:44:28;36;34;
82667;PMS5003;72691;51.374;-0.176;2024-03-22T00:46:53;37;35;
82667;PMS5003;72691;51.374;-0.176;2024-03-22T00:49:18;38;36;
82667;PMS5003;72691;51.374;-0.176;2024-03-22T00:51:43;44;39;
82667;PMS5003;72691;51.374;-0.176;2024-03-22T00:54:09;35;34;
82667;PMS5003;72691;51.374;-0.176;2024-03-22T00:56:35;40;37;
82667;PMS5003;72691;51.374;-0.176;2024-03-22T00:59:00;38;35;
82667;PMS5003;72691;51.374;-0.176;2024-03-22T01:01:25;33;31;
82667;PMS5003;72691;51.374;-0.176;2024-03-22T01:03:51;33;32;
82667;PMS5003;72691;51.374;-0.176;2024-03-22T01:06:16;36;34;
82667;PMS5003;72691;51.374;-0.176;2024-03-22T01:08:42;38;36;
82667;PMS5003;72691;51.374;-0.176;2024-03-22T01:11:07;39;37;
82667;PMS5003;72691;51.374;-0.176;2024-03-22T01:13:33;35;33;
82667;PMS5003;72691;51.374;-0.176;2024-03-22T01:15:58;34;34;
82667;PMS5003;72691;51.374;-0.176;2024-03-22T01:18:23;36;33;
82667;PMS5003;72691;51.374;-0.176;2024-03-22T01:20:48;40;36;
82667;PMS5003;72691;51.374;-0.176;2024-03-22T01:23:14;32;28;
82667;PMS5003;72691;51.374;-0.176;2024-03-22T01:25:40;35;33;
82667;PMS5003;72691;51.374;-0.176;2024-03-22T01:28:05;33;31;
82667;PMS5003;72691;51.374;-0.176;2024-03-22T01:30:31;33;31;
82667;PMS5003;72691;51.374;-0.176;2024-03-22T01:33:02;29;28;
82667;PMS5003;72691;51.374;-0.176;2024-03-22T01:35:23;36;31;
82667;PMS5003;72691;51.374;-0.176;2024-03-22T01:37:48;35;33;
82667;PMS5003;72691;51.374;-0.176;2024-03-22T01:40:14;33;30;
82667;PMS5003;72691;51.374;-0.176;2024-03-22T01:42:39;25;25;
82667;PMS5003;72691;51.374;-0.176;2024-03-22T01:45:05;26;25;
82667;PMS5003;72691;51.374;-0.176;2024-03-22T01:47:30;29;26;
82667;PMS5003;72691;51.374;-0.176;2024-03-22T01:49:56;26;24;
82667;PMS5003;72691;51.374;-0.176;2024-03-22T01:52:21;27;25;
82667;PMS5003;72691;51.374;-0.176;2024-03-22T01:54:46;32;30;
82667;PMS5003;72691;51.374;-0.176;2024-03-22T01:57:12;27;26;
82667;PMS5003;72691;51.374;-0.176;2024-03-22T01:59:38;26;24;
82667;PMS5003;72691;51.374;-0.176;2024-03-22T02:02:04;24;23;
82667;PMS5003;72691;51.374;-0.176;2024-03-22T02:04:29;26;25;
82667;PMS5003;72691;51.374;-0.176;2024-03-22T02:06:56;28;27;
82667;PMS5003;72691;51.374;-0.176;2024-03-22T02:09:20;19;19;
82667;PMS5003;72691;51.374;-0.176;2024-03-22T02:11:45;23;23;
82667;PMS5003;72691;51.374;-0.176;2024-03-22T02:14:11;24;23;
82667;PMS5003;72691;51.374;-0.176;2024-03-22T02:16:39;24;24;
82667;PMS5003;72691;51.374;-0.176;2024-03-22T02:19:02;20;20;
82667;PMS5003;72691;51.374;-0.176;2024-03-22T02:21:27;19;19;
82667;PMS5003;72691;51.374;-0.176;2024-03-22T02:23:52;23;22;
82667;PMS5003;72691;51.374;-0.176;2024-03-22T02:26:17;22;20;
82667;PMS5003;72691;51.374;-0.176;2024-03-22T02:28:43;28;26;
82667;PMS5003;72691;51.374;-0.176;2024-03-22T02:31:09;23;22;
82667;PMS5003;72691;51.374;-0.176;2024-03-22T02:33:34;29;25;
82667;PMS5003;72691;51.374;-0.176;2024-03-22T02:36:00;21;21;
82667;PMS5003;72691;51.374;-0.176;2024-03-22T02:38:26;23;22;
82667;PMS5003;72691;51.374;-0.176;2024-03-22T02:40:52;24;22;
82667;PMS5003;72691;51.374;-0.176;2024-03-22T02:43:17;19;19;
82667;PMS5003;72691;51.374;-0.176;2024-03-22T02:45:42;19;19;
82667;PMS5003;72691;51.374;-0.176;2024-03-22T02:48:07;19;19;
82667;PMS5003;72691;51.374;-0.176;2024-03-22T02:50:33;18;17;
82667;PMS5003;72691;51.374;-0.176;2024-03-22T02:52:58;22;21;
82667;PMS5003;72691;51.374;-0.176;2024-03-22T02:55:23;17;16;
82667;PMS5003;72691;51.374;-0.176;2024-03-22T02:57:48;20;20;
82667;PMS5003;72691;51.374;-0.176;2024-03-22T03:00:14;16;16;
82667;PMS5003;72691;51.374;-0.176;2024-03-22T03:02:39;18;16;
82667;PMS5003;72691;51.374;-0.176;2024-03-22T03:05:05;17;17;
82667;PMS5003;72691;51.374;-0.176;2024-03-22T03:07:30;19;16;
82667;PMS5003;72691;51.374;-0.176;2024-03-22T03:09:55;19;19;
82667;PMS5003;72691;51.374;-0.176;2024-03-22T03:12:21;17;17;
82667;PMS5003;72691;51.374;-0.176;2024-03-22T03:14:46;19;19;
82667;PMS5003;72691;51.374;-0.176;2024-03-22T03:17:11;20;19;
82667;PMS5003;72691;51.374;-0.176;2024-03-22T03:19:37;19;17;
82667;PMS5003;72691;51.374;-0.176;2024-03-22T03:22:02;21;19;
82667;PMS5003;72691;51.374;-0.176;2024-03-22T03:24:28;19;18;
82667;PMS5003;72691;51.374;-0.176;2024-03-22T03:26:53;17;17;
82667;PMS5003;72691;51.374;-0.176;2024-03-22T03:29:19;18;17;
82667;PMS5003;72691;51.374;-0.176;2024-03-22T03:31:44;22;22;
82667;PMS5003;72691;51.374;-0.176;2024-03-22T03:34:10;17;17;
82667;PMS5003;72691;51.374;-0.176;2024-03-22T03:36:35;19;18;
82667;PMS5003;72691;51.374;-0.176;2024-03-22T03:39:00;19;18;
82667;PMS5003;72691;51.374;-0.176;2024-03-22T03:41:26;20;18;
82667;PMS5003;72691;51.374;-0.176;2024-03-22T03:43:51;22;19;
82667;PMS5003;72691;51.374;-0.176;2024-03-22T03:46:17;16;16;
82667;PMS5003;72691;51.374;-0.176;2024-03-22T03:48:42;18;18;
82667;PMS5003;72691;51.374;-0.176;2024-03-22T03:51:08;18;17;
82667;PMS5003;72691;51.374;-0.176;2024-03-22T03:53:33;17;17;
82667;PMS5003;72691;51.374;-0.176;2024-03-22T03:55:59;18;18;
82667;PMS5003;72691;51.374;-0.176;2024-03-22T03:58:25;19;18;
82667;PMS5003;72691;51.374;-0.176;2024-03-22T04:00:50;17;17;
82667;PMS5003;72691;51.374;-0.176;2024-03-22T04:03:16;17;16;
82667;PMS5003;72691;51.374;-0.176;2024-03-22T04:05:40;15;15;
82667;PMS5003;72691;51.374;-0.176;2024-03-22T04:08:06;19;17;
82667;PMS5003;72691;51.374;-0.176;2024-03-22T04:10:32;17;16;
82667;PMS5003;72691;51.374;-0.176;2024-03-22T04:12:57;18;17;
82667;PMS5003;72691;51.374;-0.176;2024-03-22T04:15:22;18;18;
82667;PMS5003;72691;51.374;-0.176;2024-03-22T04:17:48;17;16;
82667;PMS5003;72691;51.374;-0.176;2024-03-22T04:20:13;17;16;
82667;PMS5003;72691;51.374;-0.176;2024-03-22T04:22:39;15;15;
82667;PMS5003;72691;51.374;-0.176;2024-03-22T04:25:04;16;16;
82667;PMS5003;72691;51.374;-0.176;2024-03-22T04:27:29;17;17;
82667;PMS5003;72691;51.374;-0.176;2024-03-22T04:29:55;16;14;
82667;PMS5003;72691;51.374;-0.176;2024-03-22T04:32:21;16;16;
82667;PMS5003;72691;51.374;-0.176;2024-03-22T04:34:46;15;15;
82667;PMS5003;72691;51.374;-0.176;2024-03-22T04:37:11;20;19;
82667;PMS5003;72691;51.374;-0.176;2024-03-22T04:39:37;17;17;
82667;PMS5003;72691;51.374;-0.176;2024-03-22T04:42:02;17;16;
82667;PMS5003;72691;51.374;-0.176;2024-03-22T04:44:27;17;15;
82667;PMS5003;72691;51.374;-0.176;2024-03-22T04:46:53;15;15;
82667;PMS5003;72691;51.374;-0.176;2024-03-22T04:49:18;15;15;
82667;PMS5003;72691;51.374;-0.176;2024-03-22T04:51:43;19;18;
82667;PMS5003;72691;51.374;-0.176;2024-03-22T04:54:09;17;16;
82667;PMS5003;72691;51.374;-0.176;2024-03-22T04:56:34;16;16;
82667;PMS5003;72691;51.374;-0.176;2024-03-22T04:58:59;16;15;
82667;PMS5003;72691;51.374;-0.176;2024-03-22T05:01:24;14;14;
82667;PMS5003;72691;51.374;-0.176;2024-03-22T05:03:50;15;13;
82667;PMS5003;72691;51.374;-0.176;2024-03-22T05:06:15;12;12;
82667;PMS5003;72691;51.374;-0.176;2024-03-22T05:08:40;15;14;
82667;PMS5003;72691;51.374;-0.176;2024-03-22T05:11:06;13;13;
82667;PMS5003;72691;51.374;-0.176;2024-03-22T05:13:32;16;15;
82667;PMS5003;72691;51.374;-0.176;2024-03-22T05:15:57;16;16;
82667;PMS5003;72691;51.374;-0.176;2024-03-22T05:18:22;14;14;
82667;PMS5003;72691;51.374;-0.176;2024-03-22T05:20:48;11;11;
82667;PMS5003;72691;51.374;-0.176;2024-03-22T05:23:13;14;14;
82667;PMS5003;72691;51.374;-0.176;2024-03-22T05:25:38;16;16;
82667;PMS5003;72691;51.374;-0.176;2024-03-22T05:28:04;16;14;
82667;PMS5003;72691;51.374;-0.176;2024-03-22T05:30:29;14;14;
82667;PMS5003;72691;51.374;-0.176;2024-03-22T05:32:55;15;14;
82667;PMS5003;72691;51.374;-0.176;2024-03-22T05:35:20;16;15;
82667;PMS5003;72691;51.374;-0.176;2024-03-22T05:37:45;17;16;
82667;PMS5003;72691;51.374;-0.176;2024-03-22T05:40:11;15;13;
82667;PMS5003;72691;51.374;-0.176;2024-03-22T05:42:36;12;10;
82667;PMS5003;72691;51.374;-0.176;2024-03-22T05:45:01;12;11;
82667;PMS5003;72691;51.374;-0.176;2024-03-22T05:47:27;16;13;
82667;PMS5003;72691;51.374;-0.176;2024-03-22T05:49:52;9;9;
82667;PMS5003;72691;51.374;-0.176;2024-03-22T05:52:17;11;9;
82667;PMS5003;72691;51.374;-0.176;2024-03-22T05:54:43;10;10;
82667;PMS5003;72691;51.374;-0.176;2024-03-22T05:57:08;15;13;
82667;PMS5003;72691;51.374;-0.176;2024-03-22T05:59:33;13;13;
82667;PMS5003;72691;51.374;-0.176;2024-03-22T06:01:59;11;10;
82667;PMS5003;72691;51.374;-0.176;2024-03-22T06:04:23;13;12;
82667;PMS5003;72691;51.374;-0.176;2024-03-22T06:06:49;18;16;
82667;PMS5003;72691;51.374;-0.176;2024-03-22T06:09:14;12;12;
82667;PMS5003;72691;51.374;-0.176;2024-03-22T06:11:45;11;11;
82667;PMS5003;72691;51.374;-0.176;2024-03-22T06:14:05;16;13;
82667;PMS5003;72691;51.374;-0.176;2024-03-22T06:16:30;12;12;
82667;PMS5003;72691;51.374;-0.176;2024-03-22T06:18:56;10;9;
82667;PMS5003;72691;51.374;-0.176;2024-03-22T06:21:21;13;13;
82667;PMS5003;72691;51.374;-0.176;2024-03-22T06:23:46;12;12;
82667;PMS5003;72691;51.374;-0.176;2024-03-22T06:26:12;11;11;
82667;PMS5003;72691;51.374;-0.176;2024-03-22T06:28:37;14;12;
82667;PMS5003;72691;51.374;-0.176;2024-03-22T06:31:03;10;10;
82667;PMS5003;72691;51.374;-0.176;2024-03-22T06:33:28;12;12;
82667;PMS5003;72691;51.374;-0.176;2024-03-22T06:35:54;10;10;
82667;PMS5003;72691;51.374;-0.176;2024-03-22T06:38:19;9;9;
82667;PMS5003;72691;51.374;-0.176;2024-03-22T06:40:45;11;11;
82667;PMS5003;72691;51.374;-0.176;2024-03-22T06:43:10;14;12;
82667;PMS5003;72691;51.374;-0.176;2024-03-22T06:45:36;11;11;
82667;PMS5003;72691;51.374;-0.176;2024-03-22T06:48:01;10;9;
82667;PMS5003;72691;51.374;-0.176;2024-03-22T06:50:27;13;11;
82667;PMS5003;72691;51.374;-0.176;2024-03-22T06:52:52;16;15;
82667;PMS5003;72691;51.374;-0.176;2024-03-22T06:55:17;15;13;
82667;PMS5003;72691;51.374;-0.176;2024-03-22T06:57:43;9;9;
82667;PMS5003;72691;51.374;-0.176;2024-03-22T07:00:08;13;12;
82667;PMS5003;72691;51.374;-0.176;2024-03-22T07:02:33;14;14;
82667;PMS5003;72691;51.374;-0.176;2024-03-22T07:04:58;14;14;
82667;PMS5003;72691;51.374;-0.176;2024-03-22T07:07:24;13;13;
82667;PMS5003;72691;51.374;-0.176;2024-03-22T07:09:49;11;11;
82667;PMS5003;72691;51.374;-0.176;2024-03-22T07:12:15;11;11;
82667;PMS5003;72691;51.374;-0.176;2024-03-22T07:14:40;12;12;
82667;PMS5003;72691;51.374;-0.176;2024-03-22T07:17:05;10;10;
82667;PMS5003;72691;51.374;-0.176;2024-03-22T07:19:31;10;10;
82667;PMS5003;72691;51.374;-0.176;2024-03-22T07:21:56;11;10;
82667;PMS5003;72691;51.374;-0.176;2024-03-22T07:24:22;11;10;
82667;PMS5003;72691;51.374;-0.176;2024-03-22T07:26:47;13;11;
82667;PMS5003;72691;51.374;-0.176;2024-03-22T07:29:13;12;11;
82667;PMS5003;72691;51.374;-0.176;2024-03-22T07:31:38;11;11;
82667;PMS5003;72691;51.374;-0.176;2024-03-22T07:34:03;11;11;
82667;PMS5003;72691;51.374;-0.176;2024-03-22T07:36:30;10;10;
82667;PMS5003;72691;51.374;-0.176;2024-03-22T07:38:54;10;7;
82667;PMS5003;72691;51.374;-0.176;2024-03-22T07:41:19;10;9;
82667;PMS5003;72691;51.374;-0.176;2024-03-22T07:43:45;11;10;
82667;PMS5003;72691;51.374;-0.176;2024-03-22T07:46:10;8;8;
82667;PMS5003;72691;51.374;-0.176;2024-03-22T07:48:36;11;11;
82667;PMS5003;72691;51.374;-0.176;2024-03-22T07:51:01;16;14;
82667;PMS5003;72691;51.374;-0.176;2024-03-22T07:53:27;10;10;
82667;PMS5003;72691;51.374;-0.176;2024-03-22T07:55:52;11;11;
82667;PMS5003;72691;51.374;-0.176;2024-03-22T07:58:17;8;8;
82667;PMS5003;72691;51.374;-0.176;2024-03-22T08:00:43;10;9;
82667;PMS5003;72691;51.374;-0.176;2024-03-22T08:03:14;10;10;
82667;PMS5003;72691;51.374;-0.176;2024-03-22T08:05:34;11;11;
82667;PMS5003;72691;51.374;-0.176;2024-03-22T08:07:59;8;8;
82667;PMS5003;72691;51.374;-0.176;2024-03-22T08:10:24;9;9;
82667;PMS5003;72691;51.374;-0.176;2024-03-22T08:12:50;8;6;
82667;PMS5003;72691;51.374;-0.176;2024-03-22T08:15:15;11;9;
82667;PMS5003;72691;51.374;-0.176;2024-03-22T08:17:40;6;6;
82667;PMS5003;72691;51.374;-0.176;2024-03-22T08:20:06;6;6;
82667;PMS5003;72691;51.374;-0.176;2024-03-22T08:22:31;11;9;
82667;PMS5003;72691;51.374;-0.176;2024-03-22T08:24:56;10;10;
82667;PMS5003;72691;51.374;-0.176;2024-03-22T08:27:22;10;10;
82667;PMS5003;72691;51.374;-0.176;2024-03-22T08:29:47;8;8;
82667;PMS5003;72691;51.374;-0.176;2024-03-22T08:32:12;8;8;
82667;PMS5003;72691;51.374;-0.176;2024-03-22T08:34:38;9;9;
82667;PMS5003;72691;51.374;-0.176;2024-03-22T08:37:03;9;9;
82667;PMS5003;72691;51.374;-0.176;2024-03-22T08:39:29;11;11;
82667;PMS5003;72691;51.374;-0.176;2024-03-22T08:41:54;8;6;
82667;PMS5003;72691;51.374;-0.176;2024-03-22T08:44:19;11;11;
82667;PMS5003;72691;51.374;-0.176;2024-03-22T08:46:45;11;10;
82667;PMS5003;72691;51.374;-0.176;2024-03-22T08:49:10;10;9;
82667;PMS5003;72691;51.374;-0.176;2024-03-22T08:51:36;9;8;
82667;PMS5003;72691;51.374;-0.176;2024-03-22T08:54:01;10;10;
82667;PMS5003;72691;51.374;-0.176;2024-03-22T08:56:27;10;10;
82667;PMS5003;72691;51.374;-0.176;2024-03-22T08:58:52;9;9;
82667;PMS5003;72691;51.374;-0.176;2024-03-22T09:01:18;11;11;
82667;PMS5003;72691;51.374;-0.176;2024-03-22T09:03:43;9;9;
82667;PMS5003;72691;51.374;-0.176;2024-03-22T09:06:08;10;10;
82667;PMS5003;72691;51.374;-0.176;2024-03-22T09:08:33;12;11;
82667;PMS5003;72691;51.374;-0.176;2024-03-22T09:10:59;8;8;
82667;PMS5003;72691;51.374;-0.176;2024-03-22T09:13:25;11;9;
82667;PMS5003;72691;51.374;-0.176;2024-03-22T09:18:16;9;9;
82667;PMS5003;72691;51.374;-0.176;2024-03-22T09:20:41;11;10;
82667;PMS5003;72691;51.374;-0.176;2024-03-22T09:23:06;13;13;
82667;PMS5003;72691;51.374;-0.176;2024-03-22T09:25:32;7;7;
82667;PMS5003;72691;51.374;-0.176;2024-03-22T09:27:57;9;9;
82667;PMS5003;72691;51.374;-0.176;2024-03-22T09:30:22;8;8;
82667;PMS5003;72691;51.374;-0.176;2024-03-22T09:32:48;7;7;
82667;PMS5003;72691;51.374;-0.176;2024-03-22T09:35:13;9;9;
82667;PMS5003;72691;51.374;-0.176;2024-03-22T09:37:38;10;9;
82667;PMS5003;72691;51.374;-0.176;2024-03-22T09:40:04;9;9;
82667;PMS5003;72691;51.374;-0.176;2024-03-22T09:42:29;10;10;
82667;PMS5003;72691;51.374;-0.176;2024-03-22T09:44:55;7;7;
82667;PMS5003;72691;51.374;-0.176;2024-03-22T09:47:20;9;7;
82667;PMS5003;72691;51.374;-0.176;2024-03-22T09:49:45;8;8;
82667;PMS5003;72691;51.374;-0.176;2024-03-22T09:52:11;12;11;
82667;PMS5003;72691;51.374;-0.176;2024-03-22T09:54:36;8;8;
82667;PMS5003;72691;51.374;-0.176;2024-03-22T09:57:01;9;7;
82667;PMS5003;72691;51.374;-0.176;2024-03-22T09:59:27;9;7;
82667;PMS5003;72691;51.374;-0.176;2024-03-22T10:01:52;11;10;
82667;PMS5003;72691;51.374;-0.176;2024-03-22T10:04:18;9;9;
82667;PMS5003;72691;51.374;-0.176;2024-03-22T10:06:43;10;9;
82667;PMS5003;72691;51.374;-0.176;2024-03-22T10:09:08;9;9;
82667;PMS5003;72691;51.374;-0.176;2024-03-22T10:11:34;9;7;
82667;PMS5003;72691;51.374;-0.176;2024-03-22T10:13:59;10;10;
82667;PMS5003;72691;51.374;-0.176;2024-03-22T10:16:25;10;10;
82667;PMS5003;72691;51.374;-0.176;2024-03-22T10:18:50;9;9;
82667;PMS5003;72691;51.374;-0.176;2024-03-22T10:21:17;10;10;
82667;PMS5003;72691;51.374;-0.176;2024-03-22T10:23:41;12;11;
82667;PMS5003;72691;51.374;-0.176;2024-03-22T10:26:06;10;9;
82667;PMS5003;72691;51.374;-0.176;2024-03-22T10:28:31;11;11;
82667;PMS5003;72691;51.374;-0.176;2024-03-22T10:30:57;8;8;
82667;PMS5003;72691;51.374;-0.176;2024-03-22T10:33:22;8;8;
82667;PMS5003;72691;51.374;-0.176;2024-03-22T10:35:48;11;10;
82667;PMS5003;72691;51.374;-0.176;2024-03-22T10:38:13;8;8;
82667;PMS5003;72691;51.374;-0.176;2024-03-22T10:40:38;7;7;
82667;PMS5003;72691;51.374;-0.176;2024-03-22T10:43:04;7;7;
82667;PMS5003;72691;51.374;-0.176;2024-03-22T10:45:29;6;6;
82667;PMS5003;72691;51.374;-0.176;2024-03-22T10:47:55;6;6;
82667;PMS5003;72691;51.374;-0.176;2024-03-22T10:50:20;10;9;
82667;PMS5003;72691;51.374;-0.176;2024-03-22T10:52:47;5;5;
82667;PMS5003;72691;51.374;-0.176;2024-03-22T10:55:27;7;7;
82667;PMS5003;72691;51.374;-0.176;2024-03-22T10:57:36;7;7;
82667;PMS5003;72691;51.374;-0.176;2024-03-22T11:00:02;12;12;
82667;PMS5003;72691;51.374;-0.176;2024-03-22T11:02:27;10;10;
82667;PMS5003;72691;51.374;-0.176;2024-03-22T11:04:53;11;10;
82667;PMS5003;72691;51.374;-0.176;2024-03-22T11:07:19;9;8;
82667;PMS5003;72691;51.374;-0.176;2024-03-22T11:09:43;9;9;
82667;PMS5003;72691;51.374;-0.176;2024-03-22T11:12:09;5;5;
82667;PMS5003;72691;51.374;-0.176;2024-03-22T11:14:34;5;4;
82667;PMS5003;72691;51.374;-0.176;2024-03-22T11:16:59;2;2;
82667;PMS5003;72691;51.374;-0.176;2024-03-22T11:19:25;4;4;
82667;PMS5003;72691;51.374;-0.176;2024-03-22T11:21:50;5;5;
82667;PMS5003;72691;51.374;-0.176;2024-03-22T11:24:15;5;4;
82667;PMS5003;72691;51.374;-0.176;2024-03-22T11:26:41;4;4;
82667;PMS5003;72691;51.374;-0.176;2024-03-22T11:29:06;4;4;
82667;PMS5003;72691;51.374;-0.176;2024-03-22T11:31:31;4;3;
82667;PMS5003;72691;51.374;-0.176;2024-03-22T11:33:57;6;5;
82667;PMS5003;72691;51.374;-0.176;2024-03-22T11:36:23;7;7;
82667;PMS5003;72691;51.374;-0.176;2024-03-22T11:38:48;6;6;
82667;PMS5003;72691;51.374;-0.176;2024-03-22T11:41:13;6;5;
82667;PMS5003;72691;51.374;-0.176;2024-03-22T11:43:39;8;6;
82667;PMS5003;72691;51.374;-0.176;2024-03-22T11:46:04;8;8;
82667;PMS5003;72691;51.374;-0.176;2024-03-22T11:48:29;8;8;
82667;PMS5003;72691;51.374;-0.176;2024-03-22T11:50:55;8;8;
82667;PMS5003;72691;51.374;-0.176;2024-03-22T11:53:20;10;9;
82667;PMS5003;72691;51.374;-0.176;2024-03-22T11:55:46;5;5;
82667;PMS5003;72691;51.374;-0.176;2024-03-22T11:58:11;8;8;
82667;PMS5003;72691;51.374;-0.176;2024-03-22T12:00:38;5;5;
82667;PMS5003;72691;51.374;-0.176;2024-03-22T12:03:03;7;7;
82667;PMS5003;72691;51.374;-0.176;2024-03-22T12:05:33;5;5;
82667;PMS5003;72691;51.374;-0.176;2024-03-22T12:07:53;8;7;
82667;PMS5003;72691;51.374;-0.176;2024-03-22T12:10:18;10;9;
82667;PMS5003;72691;51.374;-0.176;2024-03-22T12:12:44;4;4;
82667;PMS5003;72691;51.374;-0.176;2024-03-22T12:15:09;7;5;
82667;PMS5003;72691;51.374;-0.176;2024-03-22T12:17:34;4;4;
82667;PMS5003;72691;51.374;-0.176;2024-03-22T12:20:00;3;3;
82667;PMS5003;72691;51.374;-0.176;2024-03-22T12:22:25;8;8;
82667;PMS5003;72691;51.374;-0.176;2024-03-22T12:24:50;4;4;
82667;PMS5003;72691;51.374;-0.176;2024-03-22T12:27:16;7;5;
82667;PMS5003;72691;51.374;-0.176;2024-03-22T12:29:41;4;4;
82667;PMS5003;72691;51.374;-0.176;2024-03-22T12:32:06;8;6;
82667;PMS5003;72691;51.374;-0.176;2024-03-22T12:34:32;6;5;
82667;PMS5003;72691;51.374;-0.176;2024-03-22T12:36:57;3;3;
82667;PMS5003;72691;51.374;-0.176;2024-03-22T12:39:23;6;6;
82667;PMS5003;72691;51.374;-0.176;2024-03-22T12:41:48;11;11;
82667;PMS5003;72691;51.374;-0.176;2024-03-22T12:44:14;6;5;
82667;PMS5003;72691;51.374;-0.176;2024-03-22T12:46:39;6;5;
82667;PMS5003;72691;51.374;-0.176;2024-03-22T12:49:04;9;6;
82667;PMS5003;72691;51.374;-0.176;2024-03-22T12:51:30;9;8;
82667;PMS5003;72691;51.374;-0.176;2024-03-22T12:53:55;6;6;
82667;PMS5003;72691;51.374;-0.176;2024-03-22T12:56:20;6;6;
82667;PMS5003;72691;51.374;-0.176;2024-03-22T12:58:46;5;4;
82667;PMS5003;72691;51.374;-0.176;2024-03-22T13:01:11;4;3;
82667;PMS5003;72691;51.374;-0.176;2024-03-22T13:03:36;9;8;
82667;PMS5003;72691;51.374;-0.176;2024-03-22T13:06:02;4;4;
82667;PMS5003;72691;51.374;-0.176;2024-03-22T13:08:27;4;4;
82667;PMS5003;72691;51.374;-0.176;2024-03-22T13:10:53;4;3;
82667;PMS5003;72691;51.374;-0.176;2024-03-22T13:13:18;5;4;
82667;PMS5003;72691;51.374;-0.176;2024-03-22T13:15:43;3;2;
82667;PMS5003;72691;51.374;-0.176;2024-03-22T13:18:09;4;4;
82667;PMS5003;72691;51.374;-0.176;2024-03-22T13:20:34;4;4;
82667;PMS5003;72691;51.374;-0.176;2024-03-22T13:22:59;5;4;
82667;PMS5003;72691;51.374;-0.176;2024-03-22T13:25:25;4;4;
82667;PMS5003;72691;51.374;-0.176;2024-03-22T13:27:50;4;4;
82667;PMS5003;72691;51.374;-0.176;2024-03-22T13:30:16;4;4;
82667;PMS5003;72691;51.374;-0.176;2024-03-22T13:32:41;6;4;
82667;PMS5003;72691;51.374;-0.176;2024-03-22T13:35:07;5;4;
82667;PMS5003;72691;51.374;-0.176;2024-03-22T13:37:32;4;3;
82667;PMS5003;72691;51.374;-0.176;2024-03-22T13:39:57;5;4;
82667;PMS5003;72691;51.374;-0.176;2024-03-22T13:42:22;5;4;
82667;PMS5003;72691;51.374;-0.176;2024-03-22T13:44:48;8;6;
82667;PMS5003;72691;51.374;-0.176;2024-03-22T13:47:13;6;6;
82667;PMS5003;72691;51.374;-0.176;2024-03-22T13:49:38;5;4;
82667;PMS5003;72691;51.374;-0.176;2024-03-22T13:52:04;5;4;
82667;PMS5003;72691;51.374;-0.176;2024-03-22T13:54:29;5;5;
82667;PMS5003;72691;51.374;-0.176;2024-03-22T13:56:54;5;5;
82667;PMS5003;72691;51.374;-0.176;2024-03-22T13:59:20;5;5;
82667;PMS5003;72691;51.374;-0.176;2024-03-22T14:01:45;6;6;
82667;PMS5003;72691;51.374;-0.176;2024-03-22T14:04:11;6;5;
82667;PMS5003;72691;51.374;-0.176;2024-03-22T14:06:37;10;9;
82667;PMS5003;72691;51.374;-0.176;2024-03-22T14:09:02;8;8;
82667;PMS5003;72691;51.374;-0.176;2024-03-22T14:11:28;8;8;
82667;PMS5003;72691;51.374;-0.176;2024-03-22T14:13:54;5;5;
82667;PMS5003;72691;51.374;-0.176;2024-03-22T14:16:19;5;3;
82667;PMS5003;72691;51.374;-0.176;2024-03-22T14:18:44;8;5;
82667;PMS5003;72691;51.374;-0.176;2024-03-22T14:21:10;6;5;
82667;PMS5003;72691;51.374;-0.176;2024-03-22T14:23:35;8;6;
82667;PMS5003;72691;51.374;-0.176;2024-03-22T14:26:01;8;6;
82667;PMS5003;72691;51.374;-0.176;2024-03-22T14:28:26;3;3;
82667;PMS5003;72691;51.374;-0.176;2024-03-22T14:30:51;4;4;
82667;PMS5003;72691;51.374;-0.176;2024-03-22T14:33:17;5;5;
82667;PMS5003;72691;51.374;-0.176;2024-03-22T14:35:43;5;5;
82667;PMS5003;72691;51.374;-0.176;2024-03-22T14:38:08;5;4;
82667;PMS5003;72691;51.374;-0.176;2024-03-22T14:40:33;5;5;
82667;PMS5003;72691;51.374;-0.176;2024-03-22T14:42:59;5;5;
82667;PMS5003;72691;51.374;-0.176;2024-03-22T14:45:24;5;3;
82667;PMS5003;72691;51.374;-0.176;2024-03-22T14:47:49;5;4;
82667;PMS5003;72691;51.374;-0.176;2024-03-22T14:50:14;5;4;
82667;PMS5003;72691;51.374;-0.176;2024-03-22T14:52:40;3;3;
82667;PMS5003;72691;51.374;-0.176;2024-03-22T14:55:05;4;4;
82667;PMS5003;72691;51.374;-0.176;2024-03-22T14:57:30;6;6;
82667;PMS5003;72691;51.374;-0.176;2024-03-22T14:59:56;4;4;
82667;PMS5003;72691;51.374;-0.176;2024-03-22T15:02:21;5;4;
82667;PMS5003;72691;51.374;-0.176;2024-03-22T15:04:47;4;3;
82667;PMS5003;72691;51.374;-0.176;2024-03-22T15:07:12;4;4;
82667;PMS5003;72691;51.374;-0.176;2024-03-22T15:09:38;5;4;
82667;PMS5003;72691;51.374;-0.176;2024-03-22T15:12:03;4;4;
82667;PMS5003;72691;51.374;-0.176;2024-03-22T15:14:28;4;4;
82667;PMS5003;72691;51.374;-0.176;2024-03-22T15:16:54;3;3;
82667;PMS5003;72691;51.374;-0.176;2024-03-22T15:19:19;4;4;
82667;PMS5003;72691;51.374;-0.176;2024-03-22T15:21:44;4;3;
82667;PMS5003;72691;51.374;-0.176;2024-03-22T15:24:10;5;4;
82667;PMS5003;72691;51.374;-0.176;2024-03-22T15:26:35;4;4;
82667;PMS5003;72691;51.374;-0.176;2024-03-22T15:29:00;4;4;
82667;PMS5003;72691;51.374;-0.176;2024-03-22T15:31:25;3;3;
82667;PMS5003;72691;51.374;-0.176;2024-03-22T15:33:51;5;4;
82667;PMS5003;72691;51.374;-0.176;2024-03-22T15:36:16;5;5;
82667;PMS5003;72691;51.374;-0.176;2024-03-22T15:38:42;5;5;
82667;PMS5003;72691;51.374;-0.176;2024-03-22T15:41:07;5;5;
82667;PMS5003;72691;51.374;-0.176;2024-03-22T15:43:32;4;3;
82667;PMS5003;72691;51.374;-0.176;2024-03-22T15:45:58;6;5;
82667;PMS5003;72691;51.374;-0.176;2024-03-22T15:48:23;3;3;
82667;PMS5003;72691;51.374;-0.176;2024-03-22T15:50:49;5;5;
82667;PMS5003;72691;51.374;-0.176;2024-03-22T15:53:14;4;4;
82667;PMS5003;72691;51.374;-0.176;2024-03-22T15:55:39;4;4;
82667;PMS5003;72691;51.374;-0.176;2024-03-22T15:58:04;3;3;
82667;PMS5003;72691;51.374;-0.176;2024-03-22T16:00:30;5;4;
82667;PMS5003;72691;51.374;-0.176;2024-03-22T16:02:56;8;8;
82667;PMS5003;72691;51.374;-0.176;2024-03-22T16:05:21;3;3;